createdAt,value
2019-05-11T00:01:34.170Z,101448.25
2019-05-11T00:04:03.647Z,101458.19
2019-05-11T00:06:33.088Z,101456.89
2019-05-11T00:09:02.496Z,101455.61
2019-05-11T00:11:32.111Z,101450.87
2019-05-11T00:14:01.521Z,101450.42
2019-05-11T00:16:30.953Z,101454.31
2019-05-11T00:19:00.342Z,101459.50
2019-05-11T00:21:29.801Z,101459.94
2019-05-11T00:23:59.215Z,101453.02
2019-05-11T00:26:30.365Z,101454.30
2019-05-11T00:29:01.284Z,101454.73
2019-05-11T00:31:30.731Z,101458.20
2019-05-11T00:34:00.132Z,101456.08
2019-05-11T00:36:29.693Z,101461.27
2019-05-11T00:38:59.090Z,101461.67
2019-05-11T00:41:30.403Z,101457.37
2019-05-11T00:43:59.973Z,101458.25
2019-05-11T00:46:29.399Z,101455.23
2019-05-11T00:48:58.798Z,101456.09
2019-05-11T00:51:28.408Z,101459.97
2019-05-11T00:53:57.876Z,101456.52
2019-05-11T00:56:27.309Z,101457.83
2019-05-11T00:58:56.755Z,101459.97
2019-05-11T01:01:26.200Z,101462.16
2019-05-11T01:03:55.612Z,101448.77
2019-05-11T01:06:25.060Z,101446.19
2019-05-11T01:08:54.451Z,101446.63
2019-05-11T01:11:23.983Z,101443.62
2019-05-11T01:13:54.950Z,101440.57
2019-05-11T01:16:24.540Z,101441.45
2019-05-11T01:18:53.953Z,101437.55
2019-05-11T01:21:23.389Z,101433.23
2019-05-11T01:23:52.883Z,101418.59
2019-05-11T01:26:22.344Z,101421.60
2019-05-11T01:28:51.745Z,101423.33
2019-05-11T01:31:21.193Z,101432.38
2019-05-11T01:33:50.595Z,101427.65
2019-05-11T01:36:20.175Z,101430.22
2019-05-11T01:38:49.618Z,101434.50
2019-05-11T01:41:19.120Z,101434.54
2019-05-11T01:43:50.087Z,101437.11
2019-05-11T01:46:19.516Z,101436.26
2019-05-11T01:48:48.995Z,101431.48
2019-05-11T01:51:18.780Z,101434.50
2019-05-11T01:53:48.572Z,101437.54
2019-05-11T01:56:18.007Z,101440.56
2019-05-11T01:58:47.530Z,101429.77
2019-05-11T02:01:16.992Z,101432.30
2019-05-11T02:03:46.520Z,101436.22
2019-05-11T02:06:15.950Z,101440.95
2019-05-11T02:08:45.391Z,101442.27
2019-05-11T02:11:16.292Z,101441.42
2019-05-11T02:13:45.938Z,101439.67
2019-05-11T02:16:15.563Z,101442.72
2019-05-11T02:18:45.477Z,101442.73
2019-05-11T02:21:14.924Z,101445.77
2019-05-11T02:23:44.372Z,101442.75
2019-05-11T02:26:13.814Z,101442.73
2019-05-11T02:28:43.254Z,101449.22
2019-05-11T02:31:12.692Z,101442.74
2019-05-11T02:33:42.132Z,101437.56
2019-05-11T02:36:11.548Z,101446.61
2019-05-11T02:38:40.969Z,101450.48
2019-05-11T02:41:10.370Z,101450.95
2019-05-11T02:43:40.353Z,101448.33
2019-05-11T02:46:10.001Z,101450.51
2019-05-11T02:48:39.436Z,101445.30
2019-05-11T02:51:09.775Z,101450.05
2019-05-11T02:53:40.567Z,101457.34
2019-05-11T02:56:10.093Z,101452.99
2019-05-11T02:58:39.535Z,101456.86
2019-05-11T03:01:08.975Z,101459.46
2019-05-11T03:03:38.597Z,101459.47
2019-05-11T03:06:08.015Z,101469.41
2019-05-11T03:08:39.993Z,101471.63
2019-05-11T03:11:09.506Z,101473.77
2019-05-11T03:13:38.936Z,101468.61
2019-05-11T03:16:08.390Z,101471.19
2019-05-11T03:18:39.400Z,101472.49
2019-05-11T03:21:08.847Z,101474.66
2019-05-11T03:23:38.376Z,101472.52
2019-05-11T03:26:07.890Z,101469.91
2019-05-11T03:28:37.290Z,101473.36
2019-05-11T03:31:07.245Z,101478.11
2019-05-11T03:33:36.657Z,101474.19
2019-05-11T03:36:06.223Z,101478.06
2019-05-11T03:38:35.662Z,101479.78
2019-05-11T03:41:05.110Z,101482.38
2019-05-11T03:43:34.547Z,101478.92
2019-05-11T03:46:04.149Z,101489.27
2019-05-11T03:48:33.557Z,101487.52
2019-05-11T03:51:03.096Z,101495.28
2019-05-11T03:53:32.585Z,101493.97
2019-05-11T03:56:02.132Z,101494.84
2019-05-11T03:58:33.157Z,101494.42
2019-05-11T04:01:02.732Z,101502.20
2019-05-11T04:03:32.162Z,101498.31
2019-05-11T04:06:01.640Z,101501.34
2019-05-11T04:08:31.113Z,101506.52
2019-05-11T04:11:00.824Z,101499.18
2019-05-11T04:13:30.370Z,101506.52
2019-05-11T04:15:59.820Z,101510.81
2019-05-11T04:18:29.260Z,101510.39
2019-05-11T04:20:58.682Z,101514.67
2019-05-11T04:23:28.162Z,101512.08
2019-05-11T04:25:57.587Z,101505.58
2019-05-11T04:28:27.905Z,101520.30
2019-05-11T04:30:57.391Z,101522.42
2019-05-11T04:33:26.826Z,101515.06
2019-05-11T04:35:56.325Z,101515.46
2019-05-11T04:38:25.751Z,101513.68
2019-05-11T04:40:55.228Z,101524.45
2019-05-11T04:43:24.681Z,101523.52
2019-05-11T04:45:54.140Z,101521.74
2019-05-11T04:48:23.566Z,101522.52
2019-05-11T04:50:53.086Z,101528.05
2019-05-11T04:53:22.483Z,101524.52
2019-05-11T04:55:52.046Z,101528.77
2019-05-11T04:58:21.522Z,101524.32
2019-05-11T05:00:51.250Z,101528.55
2019-05-11T05:03:20.657Z,101526.30
2019-05-11T05:05:50.158Z,101528.81
2019-05-11T05:08:21.294Z,101523.08
2019-05-11T05:10:52.449Z,101526.45
2019-05-11T05:13:23.415Z,101534.16
2019-05-11T05:15:53.074Z,101535.80
2019-05-11T05:18:22.484Z,101544.70
2019-05-11T05:20:51.940Z,101541.45
2019-05-11T05:23:21.351Z,101538.21
2019-05-11T05:25:50.795Z,101544.94
2019-05-11T05:28:20.277Z,101549.38
2019-05-11T05:30:49.717Z,101554.64
2019-05-11T05:33:19.201Z,101549.16
2019-05-11T05:35:48.650Z,101557.07
2019-05-11T05:38:18.054Z,101558.08
2019-05-11T05:40:47.534Z,101558.59
2019-05-11T05:43:26.204Z,101557.34
2019-05-11T05:45:48.225Z,101561.46
2019-05-11T05:48:17.652Z,101559.39
2019-05-11T05:50:47.070Z,101568.14
2019-05-11T05:53:16.477Z,101565.75
2019-05-11T05:55:45.936Z,101563.28
2019-05-11T05:58:15.374Z,101560.55
2019-05-11T06:00:44.895Z,101571.34
2019-05-11T06:03:14.543Z,101572.92
2019-05-11T06:05:44.041Z,101584.09
2019-05-11T06:08:13.572Z,101578.61
2019-05-11T06:10:43.006Z,101580.86
2019-05-11T06:13:12.568Z,101584.90
2019-05-11T06:15:42.237Z,101585.39
2019-05-11T06:18:11.668Z,101589.23
2019-05-11T06:20:41.073Z,101589.91
2019-05-11T06:23:10.607Z,101590.89
2019-05-11T06:25:40.021Z,101592.66
2019-05-11T06:28:09.454Z,101594.97
2019-05-11T06:30:39.067Z,101602.47
2019-05-11T06:33:08.501Z,101601.61
2019-05-11T06:35:37.935Z,101602.51
2019-05-11T06:38:07.339Z,101605.86
2019-05-11T06:40:36.844Z,101604.38
2019-05-11T06:43:06.315Z,101603.16
2019-05-11T06:45:35.750Z,101605.54
2019-05-11T06:48:05.150Z,101598.14
2019-05-11T06:50:34.660Z,101613.02
2019-05-11T06:53:04.065Z,101608.80
2019-05-11T06:55:33.509Z,101611.02
2019-05-11T06:58:02.916Z,101614.69
2019-05-11T07:00:33.979Z,101614.67
2019-05-11T07:03:03.409Z,101619.19
2019-05-11T07:05:32.830Z,101621.94
2019-05-11T07:08:05.211Z,101630.05
2019-05-11T07:10:34.656Z,101629.27
2019-05-11T07:13:04.106Z,101633.77
2019-05-11T07:15:34.497Z,101627.59
2019-05-11T07:18:03.929Z,101640.11
2019-05-11T07:20:49.170Z,101645.80
2019-05-11T07:23:06.095Z,101640.81
2019-05-11T07:25:35.907Z,101641.33
2019-05-11T07:28:05.347Z,101636.73
2019-05-11T07:30:34.836Z,101640.23
2019-05-11T07:33:04.377Z,101642.53
2019-05-11T07:35:34.494Z,101637.13
2019-05-11T07:38:04.070Z,101649.59
2019-05-11T07:40:33.511Z,101643.05
2019-05-11T07:43:06.325Z,101648.70
2019-05-11T07:45:34.151Z,101647.24
2019-05-11T07:48:03.566Z,101648.36
2019-05-11T07:50:32.995Z,101648.80
2019-05-11T07:53:02.404Z,101654.89
2019-05-11T07:55:31.935Z,101653.94
2019-05-11T07:58:01.347Z,101654.42
2019-05-11T08:00:30.776Z,101655.02
2019-05-11T08:03:00.226Z,101654.16
2019-05-11T08:05:29.822Z,101664.19
2019-05-11T08:07:59.686Z,101661.88
2019-05-11T08:10:29.172Z,101677.21
2019-05-11T08:12:58.958Z,101676.11
2019-05-11T08:15:30.211Z,101674.86
2019-05-11T08:17:59.651Z,101672.89
2019-05-11T08:20:29.139Z,101679.95
2019-05-11T08:22:59.394Z,101681.70
2019-05-11T08:25:28.897Z,101685.55
2019-05-11T08:27:58.925Z,101683.88
2019-05-11T08:30:28.840Z,101691.36
2019-05-11T08:32:58.454Z,101687.17
2019-05-11T08:35:31.131Z,101678.47
2019-05-11T08:37:59.130Z,101687.78
2019-05-11T08:40:28.993Z,101689.15
2019-05-11T08:42:58.518Z,101687.44
2019-05-11T08:45:28.247Z,101692.56
2019-05-11T08:47:58.140Z,101689.50
2019-05-11T08:50:28.103Z,101702.72
2019-05-11T08:52:58.219Z,101708.92
2019-05-11T08:55:29.029Z,101702.53
2019-05-11T08:57:58.814Z,101710.52
2019-05-11T09:00:28.558Z,101710.98
2019-05-11T09:02:58.482Z,101719.45
2019-05-11T09:05:28.266Z,101725.61
2019-05-11T09:07:59.316Z,101725.96
2019-05-11T09:10:28.743Z,101732.25
2019-05-11T09:12:59.084Z,101732.07
2019-05-11T09:15:36.394Z,101730.34
2019-05-11T09:17:59.999Z,101738.11
2019-05-11T09:20:29.438Z,101736.05
2019-05-11T09:22:59.157Z,101744.70
2019-05-11T09:25:28.787Z,101748.07
2019-05-11T09:27:58.857Z,101749.50
2019-05-11T09:30:28.922Z,101744.68
2019-05-11T09:32:58.626Z,101751.05
2019-05-11T09:35:29.174Z,101754.52
2019-05-11T09:37:59.094Z,101750.14
2019-05-11T09:40:28.671Z,101760.63
2019-05-11T09:42:58.612Z,101762.39
2019-05-11T09:45:28.357Z,101770.23
2019-05-11T09:47:58.369Z,101769.96
2019-05-11T09:50:28.540Z,101769.74
2019-05-11T09:52:58.272Z,101777.92
2019-05-11T09:55:28.411Z,101771.73
2019-05-11T09:57:58.180Z,101779.05
2019-05-11T10:00:28.740Z,101780.30
2019-05-11T10:02:58.348Z,101783.38
2019-05-11T10:05:28.640Z,101784.83
2019-05-11T10:07:59.033Z,101782.39
2019-05-11T10:10:29.068Z,101791.70
2019-05-11T10:12:59.137Z,101797.34
2019-05-11T10:15:28.787Z,101800.91
2019-05-11T10:17:59.014Z,101807.20
2019-05-11T10:20:28.853Z,101806.24
2019-05-11T10:22:58.403Z,101809.55
2019-05-11T10:25:28.682Z,101812.58
2019-05-11T10:27:58.772Z,101813.18
2019-05-11T10:30:28.873Z,101819.56
2019-05-11T10:32:58.310Z,101813.57
2019-05-11T10:35:28.817Z,101824.32
2019-05-11T10:37:58.515Z,101835.42
2019-05-11T10:40:28.366Z,101832.02
2019-05-11T10:42:58.950Z,101840.50
2019-05-11T10:45:28.714Z,101848.10
2019-05-11T10:48:00.996Z,101850.39
2019-05-11T10:50:29.543Z,101850.84
2019-05-11T10:52:59.236Z,101852.81
2019-05-11T10:55:28.846Z,101853.98
2019-05-11T10:57:58.811Z,101859.88
2019-05-11T11:00:28.498Z,101854.38
2019-05-11T11:02:58.392Z,101861.27
2019-05-11T11:05:28.150Z,101861.59
2019-05-11T11:07:59.130Z,101854.94
2019-05-11T11:10:28.855Z,101863.69
2019-05-11T11:12:58.521Z,101871.73
2019-05-11T11:15:28.862Z,101871.93
2019-05-11T11:17:58.432Z,101875.52
2019-05-11T11:20:28.210Z,101873.02
2019-05-11T11:22:58.545Z,101879.39
2019-05-11T11:25:28.556Z,101889.16
2019-05-11T11:27:58.130Z,101889.75
2019-05-11T11:30:28.636Z,101882.56
2019-05-11T11:32:58.847Z,101890.66
2019-05-11T11:35:28.567Z,101889.03
2019-05-11T11:37:58.572Z,101889.65
2019-05-11T11:40:28.361Z,101887.25
2019-05-11T11:42:58.273Z,101894.30
2019-05-11T11:45:28.743Z,101899.45
2019-05-11T11:47:58.447Z,101891.02
2019-05-11T11:50:28.481Z,101898.91
2019-05-11T11:52:58.074Z,101901.11
2019-05-11T11:55:28.965Z,101906.15
2019-05-11T11:57:59.010Z,101902.78
2019-05-11T12:00:28.988Z,101897.97
2019-05-11T12:02:58.568Z,101910.00
2019-05-11T12:05:28.425Z,101910.62
2019-05-11T12:07:59.826Z,101915.72
2019-05-11T12:10:29.309Z,101909.91
2019-05-11T12:13:00.415Z,101924.58
2019-05-11T12:15:31.371Z,101928.67
2019-05-11T12:18:00.957Z,101930.81
2019-05-11T12:20:30.398Z,101928.21
2019-05-11T12:22:59.977Z,101934.42
2019-05-11T12:25:29.564Z,101931.16
2019-05-11T12:27:59.007Z,101935.95
2019-05-11T12:30:28.712Z,101938.55
2019-05-11T12:32:58.121Z,101939.41
2019-05-11T12:35:28.401Z,101943.53
2019-05-11T12:37:58.734Z,101948.73
2019-05-11T12:40:28.530Z,101955.30
2019-05-11T12:42:59.066Z,101957.23
2019-05-11T12:45:29.573Z,101970.17
2019-05-11T12:47:59.175Z,101976.69
2019-05-11T12:50:28.828Z,101970.95
2019-05-11T12:52:58.883Z,101979.16
2019-05-11T12:55:28.857Z,101978.25
2019-05-11T12:57:58.380Z,101977.67
2019-05-11T13:00:31.138Z,101984.78
2019-05-11T13:02:58.931Z,101992.49
2019-05-11T13:05:28.714Z,101996.27
2019-05-11T13:07:58.819Z,102003.32
2019-05-11T13:10:28.442Z,102000.67
2019-05-11T13:12:58.312Z,102007.51
2019-05-11T13:15:28.290Z,102015.02
2019-05-11T13:17:58.262Z,102010.92
2019-05-11T13:20:28.814Z,102026.42
2019-05-11T13:22:58.881Z,102010.37
2019-05-11T13:25:28.470Z,102021.30
2019-05-11T13:27:58.239Z,102021.73
2019-05-11T13:30:29.190Z,102016.14
2019-05-11T13:32:58.678Z,102031.72
2019-05-11T13:35:28.672Z,102025.12
2019-05-11T13:37:58.620Z,102029.95
2019-05-11T13:40:29.677Z,102034.56
2019-05-11T13:42:59.086Z,102045.59
2019-05-11T13:45:29.422Z,102046.27
2019-05-11T13:47:59.452Z,102038.63
2019-05-11T13:50:29.691Z,102046.57
2019-05-11T13:52:59.336Z,102052.52
2019-05-11T13:55:28.854Z,102053.32
2019-05-11T13:57:58.263Z,102060.76
2019-05-11T14:00:28.866Z,102055.62
2019-05-11T14:03:00.200Z,102061.64
2019-05-11T14:05:29.702Z,102060.23
2019-05-11T14:07:59.183Z,102060.49
2019-05-11T14:10:28.636Z,102078.70
2019-05-11T14:12:59.589Z,102088.53
2019-05-11T14:15:29.037Z,102093.41
2019-05-11T14:18:08.189Z,102085.59
2019-05-11T14:20:29.601Z,102091.17
2019-05-11T14:22:59.013Z,102095.59
2019-05-11T14:25:28.547Z,102103.31
2019-05-11T14:27:59.572Z,102099.87
2019-05-11T14:30:29.380Z,102110.09
2019-05-11T14:32:58.858Z,102114.77
2019-05-11T14:35:28.484Z,102121.92
2019-05-11T14:37:58.729Z,102128.95
2019-05-11T14:40:30.095Z,102136.64
2019-05-11T14:42:59.503Z,102140.62
2019-05-11T14:45:29.075Z,102146.78
2019-05-11T14:47:58.498Z,102145.52
2019-05-11T14:50:28.305Z,102149.02
2019-05-11T14:52:58.218Z,102152.91
2019-05-11T14:55:28.928Z,102158.34
2019-05-11T14:57:58.591Z,102176.50
2019-05-11T15:00:29.043Z,102181.80
2019-05-11T15:02:58.855Z,102183.72
2019-05-11T15:05:31.535Z,102192.61
2019-05-11T15:08:01.776Z,102188.30
2019-05-11T15:10:31.830Z,102193.69
2019-05-11T15:13:01.247Z,102194.33
2019-05-11T15:15:30.701Z,102202.31
2019-05-11T15:18:00.201Z,102210.84
2019-05-11T15:20:29.647Z,102209.44
2019-05-11T15:22:59.048Z,102208.86
2019-05-11T15:25:29.015Z,102229.78
2019-05-11T15:27:58.587Z,102220.27
2019-05-11T15:30:29.647Z,102225.64
2019-05-11T15:32:59.043Z,102226.70
2019-05-11T15:35:29.036Z,102240.20
2019-05-11T15:37:58.462Z,102245.28
2019-05-11T15:40:28.140Z,102245.31
2019-05-11T15:42:58.596Z,102253.17
2019-05-11T15:45:28.492Z,102253.16
2019-05-11T15:47:58.919Z,102258.12
2019-05-11T15:50:29.211Z,102260.05
2019-05-11T15:52:58.989Z,102261.33
2019-05-11T15:55:28.610Z,102265.27
2019-05-11T15:57:58.096Z,102279.08
2019-05-11T16:00:27.786Z,102286.43
2019-05-11T16:02:57.854Z,102289.02
2019-05-11T16:05:28.563Z,102289.74
2019-05-11T16:08:01.367Z,102298.54
2019-05-11T16:10:29.189Z,102296.98
2019-05-11T16:12:58.791Z,102310.63
2019-05-11T16:15:28.260Z,102307.78
2019-05-11T16:17:57.895Z,102320.54
2019-05-11T16:20:28.569Z,102325.58
2019-05-11T16:22:58.433Z,102323.21
2019-05-11T16:25:28.148Z,102319.42
2019-05-11T16:27:57.684Z,102324.58
2019-05-11T16:30:29.107Z,102333.12
2019-05-11T16:32:58.534Z,102336.06
2019-05-11T16:35:29.533Z,102333.92
2019-05-11T16:37:59.410Z,102346.70
2019-05-11T16:40:29.563Z,102350.59
2019-05-11T16:42:59.116Z,102356.20
2019-05-11T16:45:28.598Z,102367.17
2019-05-11T16:47:58.819Z,102369.34
2019-05-11T16:50:28.448Z,102368.97
2019-05-11T16:52:58.652Z,102366.67
2019-05-11T16:55:28.192Z,102369.96
2019-05-11T16:57:58.765Z,102376.38
2019-05-11T17:00:28.355Z,102377.06
2019-05-11T17:02:57.844Z,102381.34
2019-05-11T17:05:33.453Z,102385.04
2019-05-11T17:07:58.855Z,102381.41
2019-05-11T17:10:28.580Z,102388.37
2019-05-11T17:12:58.210Z,102384.81
2019-05-11T17:15:28.922Z,102390.75
2019-05-11T17:17:58.836Z,102396.25
2019-05-11T17:20:29.886Z,102395.16
2019-05-11T17:22:59.301Z,102397.11
2019-05-11T17:25:30.281Z,102400.77
2019-05-11T17:27:59.714Z,102407.98
2019-05-11T17:30:29.302Z,102417.39
2019-05-11T17:32:59.343Z,102412.14
2019-05-11T17:35:28.939Z,102419.87
2019-05-11T17:37:58.337Z,102428.76
2019-05-11T17:40:28.520Z,102431.54
2019-05-11T17:42:58.566Z,102431.98
2019-05-11T17:45:28.219Z,102432.92
2019-05-11T17:47:58.334Z,102437.14
2019-05-11T17:50:28.349Z,102440.33
2019-05-11T17:52:57.951Z,102434.02
2019-05-11T17:55:28.664Z,102436.07
2019-05-11T17:57:58.452Z,102439.53
2019-05-11T18:00:28.349Z,102440.17
2019-05-11T18:02:58.386Z,102446.67
2019-05-11T18:05:28.054Z,102451.47
2019-05-11T18:07:58.022Z,102446.11
2019-05-11T18:10:28.341Z,102455.16
2019-05-11T18:12:57.945Z,102467.37
2019-05-11T18:15:27.411Z,102463.62
2019-05-11T18:17:58.787Z,102463.39
2019-05-11T18:20:28.707Z,102473.95
2019-05-11T18:22:58.772Z,102475.05
2019-05-11T18:25:28.904Z,102475.13
2019-05-11T18:27:58.344Z,102479.03
2019-05-11T18:30:29.323Z,102482.05
2019-05-11T18:32:59.593Z,102491.59
2019-05-11T18:35:29.249Z,102492.07
2019-05-11T18:37:58.653Z,102492.92
2019-05-11T18:40:28.681Z,102502.13
2019-05-11T18:42:58.193Z,102507.47
2019-05-11T18:45:28.733Z,102515.81
2019-05-11T18:47:58.318Z,102516.31
2019-05-11T18:50:31.045Z,102521.13
2019-05-11T18:52:58.852Z,102528.17
2019-05-11T18:55:29.944Z,102529.52
2019-05-11T18:57:59.368Z,102541.72
2019-05-11T19:00:29.176Z,102537.42
2019-05-11T19:02:58.581Z,102545.73
2019-05-11T19:05:29.139Z,102547.05
2019-05-11T19:07:58.699Z,102547.48
2019-05-11T19:10:28.139Z,102544.02
2019-05-11T19:12:58.921Z,102551.83
2019-05-11T19:15:28.649Z,102546.61
2019-05-11T19:17:58.223Z,102556.63
2019-05-11T19:20:28.475Z,102557.06
2019-05-11T19:22:58.971Z,102560.48
2019-05-11T19:25:28.735Z,102561.77
2019-05-11T19:27:58.913Z,102565.27
2019-05-11T19:30:28.873Z,102569.17
2019-05-11T19:32:58.989Z,102574.86
2019-05-11T19:35:28.804Z,102579.70
2019-05-11T19:37:58.384Z,102587.98
2019-05-11T19:40:27.828Z,102595.44
2019-05-11T19:42:59.001Z,102600.25
2019-05-11T19:45:29.583Z,102606.36
2019-05-11T19:48:02.523Z,102608.58
2019-05-11T19:50:32.007Z,102609.91
2019-05-11T19:53:03.074Z,102609.47
2019-05-11T19:55:32.666Z,102612.50
2019-05-11T19:58:02.806Z,102607.27
2019-05-11T20:00:32.248Z,102611.17
2019-05-11T20:03:02.324Z,102618.13
2019-05-11T20:05:33.350Z,102616.80
2019-05-11T20:08:02.751Z,102624.62
2019-05-11T20:10:32.227Z,102629.42
2019-05-11T20:13:01.719Z,102638.55
2019-05-11T20:15:31.143Z,102645.09
2019-05-11T20:18:00.618Z,102652.09
2019-05-11T20:20:30.047Z,102650.79
2019-05-11T20:22:59.647Z,102656.91
2019-05-11T20:25:30.740Z,102662.53
2019-05-11T20:28:00.289Z,102662.11
2019-05-11T20:30:29.862Z,102655.97
2019-05-11T20:32:59.290Z,102661.62
2019-05-11T20:35:32.577Z,102665.53
2019-05-11T20:38:02.223Z,102669.44
2019-05-11T20:40:31.726Z,102672.05
2019-05-11T20:43:01.433Z,102669.44
2019-05-11T20:45:30.879Z,102672.50
2019-05-11T20:48:00.311Z,102678.14
2019-05-11T20:50:29.879Z,102684.27
2019-05-11T20:52:59.326Z,102686.88
2019-05-11T20:55:28.736Z,102692.12
2019-05-11T20:57:58.463Z,102697.33
2019-05-11T21:00:28.376Z,102698.20
2019-05-11T21:02:58.851Z,102689.91
2019-05-11T21:05:28.577Z,102694.27
2019-05-11T21:07:58.043Z,102701.23
2019-05-11T21:10:28.171Z,102694.29
2019-05-11T21:12:57.953Z,102694.28
2019-05-11T21:15:28.095Z,102691.69
2019-05-11T21:17:58.635Z,102699.95
2019-05-11T21:20:28.902Z,102701.28
2019-05-11T21:22:58.505Z,102706.52
2019-05-11T21:25:28.776Z,102709.59
2019-05-11T21:28:00.241Z,102713.95
2019-05-11T21:30:29.851Z,102718.74
2019-05-11T21:32:59.253Z,102720.92
2019-05-11T21:35:28.695Z,102725.28
2019-05-11T21:37:58.263Z,102729.19
2019-05-11T21:40:31.422Z,102733.95
2019-05-11T21:43:00.385Z,102739.13
2019-05-11T21:45:29.889Z,102743.05
2019-05-11T21:47:59.293Z,102743.45
2019-05-11T21:50:28.794Z,102742.15
2019-05-11T21:52:58.924Z,102741.67
2019-05-11T21:55:29.321Z,102741.63
2019-05-11T21:57:58.916Z,102740.28
2019-05-11T22:00:30.481Z,102744.63
2019-05-11T22:03:02.910Z,102749.84
2019-05-11T22:05:32.446Z,102752.45
2019-05-11T22:08:01.849Z,102760.79
2019-05-11T22:10:31.304Z,102758.19
2019-05-11T22:13:00.710Z,102763.44
2019-05-11T22:15:30.970Z,102768.26
2019-05-11T22:18:00.780Z,102766.95
2019-05-11T22:20:30.218Z,102776.95
2019-05-11T22:22:59.663Z,102774.78
2019-05-11T22:25:29.104Z,102780.42
2019-05-11T22:27:58.554Z,102783.03
2019-05-11T22:30:28.061Z,102792.59
2019-05-11T22:32:58.275Z,102790.86
2019-05-11T22:35:28.669Z,102791.73
2019-05-11T22:37:58.288Z,102801.25
2019-05-11T22:40:28.216Z,102806.02
2019-05-11T22:43:01.134Z,102806.42
2019-05-11T22:45:29.139Z,102817.28
2019-05-11T22:47:58.762Z,102816.41
2019-05-11T22:50:29.156Z,102825.58
2019-05-11T22:52:58.737Z,102830.31
2019-05-11T22:55:28.245Z,102833.30
2019-05-11T22:57:57.999Z,102835.03
2019-05-11T23:00:30.661Z,102831.97
2019-05-11T23:03:01.636Z,102832.84
2019-05-11T23:05:31.086Z,102837.56
2019-05-11T23:08:00.645Z,102839.79
2019-05-11T23:10:30.244Z,102838.02
2019-05-11T23:12:59.751Z,102838.48
2019-05-11T23:15:29.173Z,102838.94
2019-05-11T23:17:59.944Z,102842.83
2019-05-11T23:20:30.186Z,102844.95
2019-05-11T23:23:01.668Z,102841.53
2019-05-11T23:25:31.265Z,102841.09
2019-05-11T23:28:00.791Z,102838.44
2019-05-11T23:30:30.257Z,102852.32
2019-05-11T23:32:59.766Z,102851.02
2019-05-11T23:35:29.644Z,102859.64
2019-05-11T23:37:59.228Z,102863.09
2019-05-11T23:40:28.636Z,102861.34
2019-05-11T23:42:58.244Z,102860.84
2019-05-11T23:45:28.177Z,102859.56
2019-05-11T23:47:58.857Z,102861.30
2019-05-11T23:50:28.471Z,102854.76
2019-05-11T23:53:06.639Z,102858.67
2019-05-11T23:55:29.766Z,102854.74
2019-05-11T23:57:59.226Z,102853.37
